Time;durP1;ratioP1;P1;durP2;ratioP2;P2;SDS_P1;SDS_P2;PMS_P1;PMS_P2;Temp;Humidity;BMP_temperature;BMP_pressure;BME280_temperature;BME280_humidity;BME280_pressure;Samples;Min_cycle;Max_cycle;Signal;HPM_P1;HPM_P2
2023/05/09 00:02:00;;;;;;;12.90;11.80;;;;;;;;;;4948978;29;20449;-74
2023/05/09 00:04:26;;;;;;;13.27;12.30;;;;;;;;;;4946096;29;20938;-74
2023/05/09 00:06:52;;;;;;;12.30;11.30;;;;;;;;;;4948335;29;20448;-74
2023/05/09 00:09:18;;;;;;;12.27;11.20;;;;;;;;;;4946884;29;20438;-74
2023/05/09 00:11:44;;;;;;;13.63;12.37;;;;;;;;;;4939410;29;20434;-74
2023/05/09 00:14:13;;;;;;;12.30;11.40;;;;;;;;;;4946521;29;20461;-74
2023/05/09 00:16:39;;;;;;;13.13;12.07;;;;;;;;;;4949067;29;20449;-74
2023/05/09 00:19:06;;;;;;;12.90;11.67;;;;;;;;;;4945928;29;20446;-74
2023/05/09 00:21:35;;;;;;;12.90;11.90;;;;;;;;;;4942703;29;20443;-74
2023/05/09 00:24:01;;;;;;;13.37;12.07;;;;;;;;;;4935923;29;20521;-74
2023/05/09 00:26:27;;;;;;;14.50;13.30;;;;;;;;;;4949258;29;20434;-76
2023/05/09 00:28:53;;;;;;;12.83;11.83;;;;;;;;;;4939681;29;20773;-75
2023/05/09 00:31:21;;;;;;;14.97;13.67;;;;;;;;;;4947833;29;20442;-75
2023/05/09 00:33:47;;;;;;;13.67;12.47;;;;;;;;;;4941588;29;20466;-74
2023/05/09 00:36:13;;;;;;;14.57;13.23;;;;;;;;;;4951877;28;20434;-76
2023/05/09 00:38:39;;;;;;;20.17;17.90;;;;;;;;;;4948543;28;20489;-74
2023/05/09 00:41:05;;;;;;;15.40;13.90;;;;;;;;;;4943972;28;20466;-74
2023/05/09 00:43:31;;;;;;;15.37;14.07;;;;;;;;;;4948284;29;20426;-75
2023/05/09 00:45:57;;;;;;;14.70;13.20;;;;;;;;;;4945704;29;20513;-74
2023/05/09 00:48:24;;;;;;;15.10;13.90;;;;;;;;;;4949034;28;20434;-74
2023/05/09 00:50:51;;;;;;;14.70;13.37;;;;;;;;;;4945261;29;20460;-74
2023/05/09 00:53:19;;;;;;;15.97;14.43;;;;;;;;;;4944936;29;20466;-74
2023/05/09 00:55:45;;;;;;;15.40;13.90;;;;;;;;;;4929719;29;20469;-74
2023/05/09 00:58:11;;;;;;;17.70;15.87;;;;;;;;;;4966138;29;20438;-74
2023/05/09 01:00:37;;;;;;;15.70;14.20;;;;;;;;;;4971612;29;20453;-73
2023/05/09 01:03:03;;;;;;;16.80;15.20;;;;;;;;;;4958850;29;20808;-75
2023/05/09 01:05:33;;;;;;;16.87;15.17;;;;;;;;;;4948552;29;20446;-75
2023/05/09 01:08:07;;;;;;;18.30;14.67;;;;;;;;;;4948796;29;20433;-78
2023/05/09 01:10:40;;;;;;;16.50;14.83;;;;;;;;;;4948072;29;20458;-78
2023/05/09 01:13:23;;;;;;;14.47;13.17;;;;;;;;;;4944619;29;20480;-78
2023/05/09 01:16:04;;;;;;;16.60;14.00;;;;;;;;;;4944868;29;20521;-75
2023/05/09 01:18:54;;;;;;;18.63;15.97;;;;;;;;;;4943475;29;20426;-74
2023/05/09 01:21:21;;;;;;;13.60;12.40;;;;;;;;;;4909896;29;20446;-74
2023/05/09 01:24:06;;;;;;;12.10;11.20;;;;;;;;;;4934319;29;20499;-75
2023/05/09 01:26:46;;;;;;;13.60;12.40;;;;;;;;;;4940082;29;20442;-75
2023/05/09 01:29:16;;;;;;;11.57;10.70;;;;;;;;;;4949392;28;20962;-74
2023/05/09 01:31:43;;;;;;;12.77;11.87;;;;;;;;;;4947000;29;20435;-80
2023/05/09 01:34:11;;;;;;;13.73;11.20;;;;;;;;;;4946037;29;20434;-78
2023/05/09 01:36:37;;;;;;;13.60;12.07;;;;;;;;;;4950824;28;20490;-75
2023/05/09 01:39:04;;;;;;;12.50;11.37;;;;;;;;;;4945512;29;20768;-75
2023/05/09 01:41:31;;;;;;;13.57;12.40;;;;;;;;;;4954832;28;20458;-75
2023/05/09 01:43:58;;;;;;;12.67;11.70;;;;;;;;;;4944947;28;20423;-76
2023/05/09 01:46:25;;;;;;;13.40;12.33;;;;;;;;;;4948448;28;20805;-74
2023/05/09 01:48:51;;;;;;;14.37;13.07;;;;;;;;;;4957327;28;20999;-74
2023/05/09 01:51:18;;;;;;;16.07;12.93;;;;;;;;;;4957610;28;20431;-75
2023/05/09 01:53:46;;;;;;;15.30;13.90;;;;;;;;;;4960596;28;20476;-74
2023/05/09 01:56:12;;;;;;;14.90;13.50;;;;;;;;;;4936522;28;20421;-74
2023/05/09 01:58:38;;;;;;;14.13;12.93;;;;;;;;;;4947430;28;20455;-74
2023/05/09 02:01:05;;;;;;;15.03;13.73;;;;;;;;;;4964679;28;20523;-73
2023/05/09 02:03:33;;;;;;;17.63;15.83;;;;;;;;;;4945227;28;20933;-76
2023/05/09 02:05:59;;;;;;;17.03;15.47;;;;;;;;;;4961452;28;20449;-74
2023/05/09 02:08:25;;;;;;;16.90;15.40;;;;;;;;;;4950307;28;20808;-74
2023/05/09 02:10:51;;;;;;;16.20;14.63;;;;;;;;;;4951171;28;21184;-74
2023/05/09 02:13:18;;;;;;;17.17;15.57;;;;;;;;;;4965146;28;20986;-74
2023/05/09 02:15:44;;;;;;;19.20;16.87;;;;;;;;;;4953704;28;20474;-74
2023/05/09 02:18:11;;;;;;;16.90;15.30;;;;;;;;;;4957857;28;20423;-73
2023/05/09 02:20:37;;;;;;;21.13;15.27;;;;;;;;;;4950480;28;20434;-74
2023/05/09 02:23:04;;;;;;;18.27;16.37;;;;;;;;;;4953527;28;20426;-74
2023/05/09 02:25:30;;;;;;;17.23;15.60;;;;;;;;;;4952164;28;20484;-75
2023/05/09 02:27:58;;;;;;;19.70;16.33;;;;;;;;;;4937758;28;20433;-75
2023/05/09 02:30:28;;;;;;;19.37;17.37;;;;;;;;;;4961321;28;20464;-74
2023/05/09 02:32:58;;;;;;;19.90;17.80;;;;;;;;;;4953890;28;20469;-74
2023/05/09 02:35:26;;;;;;;22.07;19.80;;;;;;;;;;4955800;28;20504;-74
2023/05/09 02:37:52;;;;;;;22.10;17.47;;;;;;;;;;4964740;28;20971;-74
2023/05/09 02:40:20;;;;;;;18.17;16.30;;;;;;;;;;4956695;28;20854;-74
2023/05/09 02:42:46;;;;;;;21.30;18.40;;;;;;;;;;4946230;29;20519;-75
2023/05/09 02:45:12;;;;;;;19.73;17.10;;;;;;;;;;4937919;29;20457;-74
2023/05/09 02:47:38;;;;;;;21.43;18.50;;;;;;;;;;4945179;28;20434;-74
2023/05/09 02:50:05;;;;;;;20.73;18.53;;;;;;;;;;4945328;29;20434;-75
2023/05/09 02:52:31;;;;;;;21.37;16.13;;;;;;;;;;4945430;29;21028;-75
2023/05/09 02:54:57;;;;;;;23.10;18.03;;;;;;;;;;4946831;29;20449;-76
2023/05/09 02:57:23;;;;;;;20.57;18.37;;;;;;;;;;4961676;28;20450;-75
2023/05/09 02:59:49;;;;;;;22.10;19.70;;;;;;;;;;4968728;29;20441;-74
2023/05/09 03:02:15;;;;;;;19.60;16.93;;;;;;;;;;4951857;29;21066;-73
2023/05/09 03:04:41;;;;;;;23.37;21.07;;;;;;;;;;4947781;29;20449;-74
2023/05/09 03:07:07;;;;;;;22.47;20.23;;;;;;;;;;4940490;29;20837;-74
2023/05/09 03:09:33;;;;;;;21.40;19.30;;;;;;;;;;4947251;29;20434;-74
2023/05/09 03:12:01;;;;;;;22.00;19.67;;;;;;;;;;4939587;29;20475;-74
2023/05/09 03:14:27;;;;;;;23.00;20.57;;;;;;;;;;4941311;29;20453;-74
2023/05/09 03:16:53;;;;;;;23.90;18.70;;;;;;;;;;4944441;28;20449;-75
2023/05/09 03:19:19;;;;;;;20.17;18.00;;;;;;;;;;4946396;28;20442;-74
2023/05/09 03:21:45;;;;;;;20.47;18.00;;;;;;;;;;4948874;29;20850;-75
2023/05/09 03:24:11;;;;;;;23.17;18.70;;;;;;;;;;4945446;29;20968;-75
2023/05/09 03:26:37;;;;;;;21.00;18.73;;;;;;;;;;4948826;29;20445;-75
2023/05/09 03:29:04;;;;;;;20.90;17.37;;;;;;;;;;4950225;28;20463;-74
2023/05/09 03:31:30;;;;;;;25.37;20.17;;;;;;;;;;4944378;29;20456;-75
2023/05/09 03:33:56;;;;;;;26.53;18.10;;;;;;;;;;4949315;29;21284;-75
2023/05/09 03:36:22;;;;;;;22.40;19.20;;;;;;;;;;4949733;29;20426;-74
2023/05/09 03:38:49;;;;;;;26.37;20.53;;;;;;;;;;4948750;29;20442;-74
2023/05/09 03:41:16;;;;;;;20.10;17.90;;;;;;;;;;4928728;29;21105;-76
2023/05/09 03:43:42;;;;;;;23.23;19.70;;;;;;;;;;4926465;29;20439;-74
2023/05/09 03:46:08;;;;;;;22.10;18.33;;;;;;;;;;4929196;29;20490;-75
2023/05/09 03:48:34;;;;;;;22.80;20.33;;;;;;;;;;4930255;29;20427;-75
2023/05/09 03:51:01;;;;;;;27.40;21.87;;;;;;;;;;4929309;29;20439;-75
2023/05/09 03:53:27;;;;;;;24.10;19.80;;;;;;;;;;4923476;29;20574;-73
2023/05/09 03:55:54;;;;;;;21.77;19.03;;;;;;;;;;4927705;29;20438;-74
2023/05/09 03:58:20;;;;;;;21.30;18.30;;;;;;;;;;4919960;29;21393;-74
2023/05/09 04:00:46;;;;;;;22.93;20.47;;;;;;;;;;4929120;29;20454;-74
2023/05/09 04:03:12;;;;;;;26.60;20.63;;;;;;;;;;4924704;29;20442;-74
2023/05/09 04:05:38;;;;;;;24.07;21.57;;;;;;;;;;4928078;29;20431;-73
2023/05/09 04:08:04;;;;;;;27.43;21.03;;;;;;;;;;4929240;29;20498;-74
2023/05/09 04:10:31;;;;;;;22.47;20.00;;;;;;;;;;4929805;29;20434;-74
2023/05/09 04:13:00;;;;;;;25.33;19.63;;;;;;;;;;4923656;29;20463;-74
2023/05/09 04:15:26;;;;;;;25.87;23.10;;;;;;;;;;4923200;29;20493;-74
2023/05/09 04:17:52;;;;;;;22.80;20.30;;;;;;;;;;4922058;29;20443;-74
2023/05/09 04:20:18;;;;;;;25.10;21.17;;;;;;;;;;4927834;29;20446;-75
2023/05/09 04:22:44;;;;;;;24.83;21.63;;;;;;;;;;4928279;29;20439;-75
2023/05/09 04:25:12;;;;;;;27.20;22.53;;;;;;;;;;4934740;28;21029;-75
2023/05/09 04:27:38;;;;;;;25.80;20.10;;;;;;;;;;4933312;29;20956;-74
2023/05/09 04:30:04;;;;;;;25.27;22.53;;;;;;;;;;4928088;29;20451;-75
2023/05/09 04:32:30;;;;;;;24.63;22.00;;;;;;;;;;4929117;29;20470;-74
2023/05/09 04:34:56;;;;;;;26.53;22.80;;;;;;;;;;4920437;29;20449;-74
2023/05/09 04:37:22;;;;;;;25.53;22.30;;;;;;;;;;4929126;29;20423;-75
2023/05/09 04:39:48;;;;;;;28.47;24.30;;;;;;;;;;4929511;29;20454;-76
2023/05/09 04:42:14;;;;;;;25.70;23.00;;;;;;;;;;4947039;29;21003;-74
2023/05/09 04:44:41;;;;;;;24.97;22.30;;;;;;;;;;4947455;29;20441;-76
2023/05/09 04:47:07;;;;;;;26.20;22.03;;;;;;;;;;4940264;29;20766;-75
2023/05/09 04:49:33;;;;;;;34.10;23.90;;;;;;;;;;4948727;29;21177;-74
2023/05/09 04:51:59;;;;;;;26.07;22.67;;;;;;;;;;4945501;29;20440;-77
2023/05/09 04:54:25;;;;;;;29.40;22.90;;;;;;;;;;4950015;29;20426;-76
2023/05/09 04:56:51;;;;;;;28.37;23.00;;;;;;;;;;4959714;28;20453;-77
2023/05/09 04:59:17;;;;;;;28.27;23.07;;;;;;;;;;4963256;28;20435;-77
2023/05/09 05:01:43;;;;;;;30.07;22.00;;;;;;;;;;4948088;29;20430;-75
2023/05/09 05:04:09;;;;;;;26.03;23.20;;;;;;;;;;4949264;29;20438;-74
2023/05/09 05:06:36;;;;;;;31.30;22.60;;;;;;;;;;4945897;29;20433;-76
2023/05/09 05:09:02;;;;;;;27.83;22.40;;;;;;;;;;4938956;29;20442;-74
2023/05/09 05:11:28;;;;;;;24.37;21.47;;;;;;;;;;4939394;29;20524;-75
2023/05/09 05:13:54;;;;;;;27.87;23.73;;;;;;;;;;4943390;28;20613;-77
2023/05/09 05:16:20;;;;;;;31.40;25.30;;;;;;;;;;4947013;29;20876;-76
2023/05/09 05:18:46;;;;;;;28.13;23.43;;;;;;;;;;4945157;29;20647;-76
2023/05/09 05:21:12;;;;;;;28.43;22.60;;;;;;;;;;4939363;29;20658;-75
2023/05/09 05:23:39;;;;;;;27.10;22.27;;;;;;;;;;4942775;29;20465;-76
2023/05/09 05:26:05;;;;;;;27.40;22.50;;;;;;;;;;4943772;28;20575;-75
2023/05/09 05:28:31;;;;;;;30.70;23.07;;;;;;;;;;4930099;29;20824;-76
2023/05/09 05:30:57;;;;;;;25.30;22.47;;;;;;;;;;4943734;28;20501;-76
2023/05/09 05:33:23;;;;;;;28.07;22.00;;;;;;;;;;4947125;29;21209;-76
2023/05/09 05:35:49;;;;;;;24.57;20.97;;;;;;;;;;4943742;29;20426;-76
2023/05/09 05:38:15;;;;;;;29.03;23.57;;;;;;;;;;4947375;29;20534;-77
2023/05/09 05:40:41;;;;;;;22.00;19.70;;;;;;;;;;4937128;28;20509;-76
2023/05/09 05:43:07;;;;;;;26.40;21.60;;;;;;;;;;4938742;28;21101;-76
2023/05/09 05:45:33;;;;;;;34.60;23.80;;;;;;;;;;4939331;29;20450;-78
2023/05/09 05:48:01;;;;;;;25.70;22.70;;;;;;;;;;4942271;29;20520;-76
2023/05/09 05:50:27;;;;;;;28.03;22.20;;;;;;;;;;4943621;29;20550;-76
2023/05/09 05:52:53;;;;;;;25.20;22.67;;;;;;;;;;4946877;29;21030;-77
2023/05/09 05:55:20;;;;;;;25.03;22.23;;;;;;;;;;4943549;28;20509;-77
2023/05/09 05:57:46;;;;;;;24.20;20.40;;;;;;;;;;4946257;29;20594;-76
2023/05/09 06:00:13;;;;;;;25.80;22.40;;;;;;;;;;4944345;29;20469;-76
2023/05/09 06:02:43;;;;;;;24.73;21.73;;;;;;;;;;4946236;29;20509;-77
2023/05/09 06:05:09;;;;;;;23.93;21.53;;;;;;;;;;4936930;28;20732;-76
2023/05/09 06:07:35;;;;;;;24.10;20.47;;;;;;;;;;4945612;28;20449;-76
2023/05/09 06:10:01;;;;;;;26.00;20.60;;;;;;;;;;4942042;28;20450;-75
2023/05/09 06:12:27;;;;;;;22.13;18.90;;;;;;;;;;4938148;29;20466;-77
2023/05/09 06:14:53;;;;;;;23.73;21.43;;;;;;;;;;4941020;29;21012;-76
2023/05/09 06:17:19;;;;;;;21.97;19.20;;;;;;;;;;4945961;29;20434;-75
2023/05/09 06:19:46;;;;;;;19.70;17.60;;;;;;;;;;4943239;28;20434;-76
2023/05/09 06:22:12;;;;;;;25.50;18.57;;;;;;;;;;4944807;29;20812;-76
2023/05/09 06:24:38;;;;;;;23.17;18.13;;;;;;;;;;4935433;28;20458;-75
2023/05/09 06:27:04;;;;;;;19.13;17.27;;;;;;;;;;4944219;29;20434;-76
2023/05/09 06:29:30;;;;;;;23.13;16.70;;;;;;;;;;4943433;28;20603;-76
2023/05/09 06:31:56;;;;;;;22.10;17.70;;;;;;;;;;4946727;29;20441;-77
2023/05/09 06:34:22;;;;;;;20.83;18.83;;;;;;;;;;4940589;28;20824;-75
2023/05/09 06:36:48;;;;;;;18.50;16.80;;;;;;;;;;4942407;28;20449;-76
2023/05/09 06:39:17;;;;;;;20.47;18.47;;;;;;;;;;4940573;29;20478;-76
2023/05/09 06:41:43;;;;;;;20.60;18.50;;;;;;;;;;4941698;29;20450;-77
2023/05/09 06:44:09;;;;;;;19.17;17.47;;;;;;;;;;4938537;29;20791;-76
2023/05/09 06:46:35;;;;;;;18.80;16.97;;;;;;;;;;4942282;29;20502;-76
2023/05/09 06:49:01;;;;;;;19.27;17.50;;;;;;;;;;4948811;28;20462;-76
2023/05/09 06:51:27;;;;;;;18.67;16.87;;;;;;;;;;4950622;28;20519;-76
2023/05/09 06:53:53;;;;;;;18.43;16.83;;;;;;;;;;4967991;28;20465;-77
2023/05/09 06:56:23;;;;;;;17.43;15.60;;;;;;;;;;4956379;29;21091;-77
2023/05/09 06:58:50;;;;;;;17.03;15.43;;;;;;;;;;4953098;28;20570;-76
2023/05/09 07:01:16;;;;;;;15.87;14.53;;;;;;;;;;4941443;28;20445;-76
2023/05/09 07:03:42;;;;;;;15.43;14.23;;;;;;;;;;4954617;28;20532;-76
2023/05/09 07:06:08;;;;;;;15.47;14.27;;;;;;;;;;4946055;29;20457;-75
2023/05/09 07:08:34;;;;;;;15.50;14.00;;;;;;;;;;4948850;29;20437;-75
2023/05/09 07:11:00;;;;;;;14.47;13.27;;;;;;;;;;4944078;29;20934;-78
2023/05/09 07:13:26;;;;;;;15.50;14.17;;;;;;;;;;4948462;28;20477;-76
2023/05/09 07:15:52;;;;;;;14.47;13.30;;;;;;;;;;4939852;29;20553;-75
2023/05/09 07:18:19;;;;;;;15.40;13.77;;;;;;;;;;4948118;29;20470;-76
2023/05/09 07:20:45;;;;;;;12.97;11.90;;;;;;;;;;4939819;29;20468;-75
2023/05/09 07:23:11;;;;;;;12.70;11.53;;;;;;;;;;4938148;29;20426;-76
2023/05/09 07:25:37;;;;;;;13.97;12.87;;;;;;;;;;4942978;29;20922;-76
2023/05/09 07:28:03;;;;;;;14.33;13.10;;;;;;;;;;4941614;28;20445;-75
2023/05/09 07:30:29;;;;;;;13.87;12.67;;;;;;;;;;4947891;29;20513;-77
2023/05/09 07:32:55;;;;;;;14.00;12.90;;;;;;;;;;4946837;29;20837;-76
2023/05/09 07:35:21;;;;;;;12.33;11.50;;;;;;;;;;4945345;29;20456;-76
2023/05/09 07:37:47;;;;;;;12.37;11.27;;;;;;;;;;4948570;29;20517;-76
2023/05/09 07:40:14;;;;;;;12.10;11.20;;;;;;;;;;4942850;28;20464;-76
2023/05/09 07:42:40;;;;;;;11.73;10.73;;;;;;;;;;4948891;29;20796;-76
2023/05/09 07:45:07;;;;;;;11.90;10.83;;;;;;;;;;4946717;29;20470;-76
2023/05/09 07:47:33;;;;;;;13.10;12.10;;;;;;;;;;4931423;29;20736;-75
2023/05/09 07:50:00;;;;;;;12.00;11.10;;;;;;;;;;4946047;29;20438;-76
2023/05/09 07:52:26;;;;;;;12.10;11.17;;;;;;;;;;4942539;28;20889;-76
2023/05/09 07:54:53;;;;;;;12.10;11.17;;;;;;;;;;4944452;29;20418;-77
2023/05/09 07:57:19;;;;;;;12.53;11.63;;;;;;;;;;4944808;29;20465;-76
2023/05/09 07:59:45;;;;;;;12.30;10.70;;;;;;;;;;4948068;29;20965;-75
2023/05/09 08:02:11;;;;;;;11.23;10.53;;;;;;;;;;4927978;29;20434;-76
2023/05/09 08:04:39;;;;;;;11.90;10.90;;;;;;;;;;4945708;28;20434;-76
2023/05/09 08:07:06;;;;;;;11.30;10.40;;;;;;;;;;4946082;29;20540;-76
2023/05/09 08:09:32;;;;;;;10.40;9.60;;;;;;;;;;4943572;29;20770;-76
2023/05/09 08:11:58;;;;;;;11.50;10.50;;;;;;;;;;4942909;29;20445;-76
2023/05/09 08:14:24;;;;;;;10.70;9.90;;;;;;;;;;4944356;29;20484;-76
2023/05/09 08:16:50;;;;;;;10.30;8.60;;;;;;;;;;4927077;29;20446;-75
2023/05/09 08:19:16;;;;;;;9.30;8.60;;;;;;;;;;4946312;29;20433;-77
2023/05/09 08:21:42;;;;;;;9.20;8.70;;;;;;;;;;4941000;29;20944;-77
2023/05/09 08:24:08;;;;;;;9.00;8.50;;;;;;;;;;4938186;29;20819;-74
2023/05/09 08:26:34;;;;;;;9.43;8.83;;;;;;;;;;4941947;29;20446;-76
2023/05/09 08:29:01;;;;;;;9.00;8.43;;;;;;;;;;4947638;28;20979;-78
2023/05/09 08:31:27;;;;;;;9.13;8.63;;;;;;;;;;4942314;28;20477;-77
2023/05/09 08:33:56;;;;;;;8.23;7.73;;;;;;;;;;4949993;28;20470;-76
2023/05/09 08:36:22;;;;;;;7.80;7.30;;;;;;;;;;4940474;29;20439;-76
2023/05/09 08:38:48;;;;;;;8.03;7.67;;;;;;;;;;4944809;28;20438;-76
2023/05/09 08:41:15;;;;;;;7.67;7.37;;;;;;;;;;4944507;29;20470;-76
2023/05/09 08:43:41;;;;;;;10.43;9.77;;;;;;;;;;4946852;28;20513;-76
2023/05/09 08:46:08;;;;;;;9.87;9.37;;;;;;;;;;4929774;29;20897;-74
2023/05/09 08:48:37;;;;;;;9.00;8.40;;;;;;;;;;4963017;28;20446;-78
2023/05/09 08:51:04;;;;;;;8.80;8.40;;;;;;;;;;4965738;29;20442;-77
2023/05/09 08:53:30;;;;;;;8.53;8.00;;;;;;;;;;4956656;29;20997;-75
2023/05/09 08:55:58;;;;;;;8.70;8.30;;;;;;;;;;4948378;28;20446;-76
2023/05/09 08:58:24;;;;;;;10.90;9.93;;;;;;;;;;4943012;29;20812;-76
2023/05/09 09:00:50;;;;;;;8.87;8.33;;;;;;;;;;4941778;29;20435;-76
2023/05/09 09:03:17;;;;;;;10.10;9.40;;;;;;;;;;4942475;29;20848;-76
2023/05/09 09:05:44;;;;;;;9.60;8.90;;;;;;;;;;4943394;29;20449;-78
2023/05/09 09:08:10;;;;;;;10.50;9.90;;;;;;;;;;4942614;29;20497;-75
2023/05/09 09:10:39;;;;;;;9.63;9.23;;;;;;;;;;4946107;29;20508;-77
2023/05/09 09:13:05;;;;;;;9.30;8.70;;;;;;;;;;4940265;29;20568;-76
2023/05/09 09:15:35;;;;;;;9.50;9.10;;;;;;;;;;4946161;29;20434;-76
2023/05/09 09:18:06;;;;;;;9.30;8.80;;;;;;;;;;4942216;28;20507;-76
2023/05/09 09:20:33;;;;;;;8.80;8.40;;;;;;;;;;4935558;29;20639;-77
2023/05/09 09:23:00;;;;;;;8.77;8.27;;;;;;;;;;4938431;29;20443;-76
2023/05/09 09:25:26;;;;;;;7.77;7.47;;;;;;;;;;4944501;29;20454;-76
2023/05/09 09:27:52;;;;;;;8.17;7.80;;;;;;;;;;4944337;28;20507;-76
2023/05/09 09:30:19;;;;;;;9.13;8.83;;;;;;;;;;4927353;29;20837;-77
2023/05/09 09:32:45;;;;;;;9.33;8.93;;;;;;;;;;4942431;28;20477;-76
2023/05/09 09:35:11;;;;;;;6.70;6.50;;;;;;;;;;4938647;29;20442;-77
2023/05/09 09:37:44;;;;;;;7.60;7.40;;;;;;;;;;4943504;28;20513;-75
2023/05/09 09:40:11;;;;;;;8.23;7.70;;;;;;;;;;4944763;28;20458;-76
2023/05/09 09:42:44;;;;;;;8.27;7.87;;;;;;;;;;4944467;29;20446;-76
2023/05/09 09:45:10;;;;;;;6.70;6.30;;;;;;;;;;4942717;29;20494;-76
2023/05/09 09:47:37;;;;;;;6.60;6.50;;;;;;;;;;4937051;28;21025;-76
2023/05/09 09:50:33;;;;;;;6.07;5.87;;;;;;;;;;4933985;28;20438;-76
2023/05/09 09:53:02;;;;;;;7.17;6.97;;;;;;;;;;4929546;29;20552;-76
2023/05/09 09:55:28;;;;;;;7.00;6.70;;;;;;;;;;4924838;29;20453;-76
2023/05/09 09:57:55;;;;;;;7.40;7.10;;;;;;;;;;4934862;28;21249;-76
2023/05/09 10:00:26;;;;;;;6.10;6.00;;;;;;;;;;4935268;29;20462;-76
2023/05/09 10:02:53;;;;;;;6.40;6.10;;;;;;;;;;4945248;28;20610;-76
2023/05/09 10:05:23;;;;;;;5.60;5.50;;;;;;;;;;4945776;29;20442;-77
2023/05/09 10:07:57;;;;;;;6.50;6.10;;;;;;;;;;4933105;29;20443;-76
2023/05/09 10:10:25;;;;;;;6.00;5.77;;;;;;;;;;4944445;29;20441;-76
2023/05/09 10:12:53;;;;;;;4.80;4.70;;;;;;;;;;4942801;28;20472;-75
2023/05/09 10:15:20;;;;;;;5.60;5.40;;;;;;;;;;4932006;28;20934;-75
2023/05/09 10:17:47;;;;;;;6.07;5.77;;;;;;;;;;4931951;28;20819;-75
2023/05/09 10:20:13;;;;;;;5.37;4.93;;;;;;;;;;4942177;29;20869;-76
2023/05/09 10:22:40;;;;;;;5.50;5.30;;;;;;;;;;4939407;28;20435;-78
2023/05/09 10:25:10;;;;;;;6.00;5.70;;;;;;;;;;4919999;29;20457;-75
2023/05/09 10:27:36;;;;;;;5.60;5.50;;;;;;;;;;4925301;28;20445;-75
2023/05/09 10:30:05;;;;;;;5.67;5.27;;;;;;;;;;4935620;29;21072;-77
2023/05/09 10:32:37;;;;;;;5.93;5.73;;;;;;;;;;4943476;28;20470;-75
2023/05/09 10:35:05;;;;;;;5.77;5.57;;;;;;;;;;4933392;29;21090;-75
2023/05/09 10:37:31;;;;;;;5.70;5.40;;;;;;;;;;4940426;28;20534;-76
2023/05/09 10:39:58;;;;;;;5.00;4.90;;;;;;;;;;4949062;29;20618;-75
2023/05/09 10:42:24;;;;;;;4.80;4.60;;;;;;;;;;4946578;28;20461;-76
2023/05/09 10:44:52;;;;;;;5.60;5.30;;;;;;;;;;4964851;29;20521;-76
2023/05/09 10:47:19;;;;;;;4.23;4.03;;;;;;;;;;4961738;28;20856;-75
2023/05/09 10:49:45;;;;;;;4.10;4.00;;;;;;;;;;4947398;29;20478;-74
2023/05/09 10:52:11;;;;;;;4.83;4.47;;;;;;;;;;4940338;28;21899;-73
2023/05/09 10:54:37;;;;;;;3.73;3.73;;;;;;;;;;4945432;29;20446;-76
2023/05/09 10:57:05;;;;;;;3.33;3.33;;;;;;;;;;4943807;29;20933;-75
2023/05/09 10:59:36;;;;;;;4.13;3.93;;;;;;;;;;4937194;29;20483;-75
2023/05/09 11:02:02;;;;;;;3.40;3.40;;;;;;;;;;4943983;28;20449;-75
2023/05/09 11:04:29;;;;;;;3.50;3.40;;;;;;;;;;4945620;29;20957;-75
2023/05/09 11:06:56;;;;;;;3.63;3.63;;;;;;;;;;4945693;29;20496;-74
2023/05/09 11:09:34;;;;;;;4.00;3.90;;;;;;;;;;4939120;29;20439;-74
2023/05/09 11:12:06;;;;;;;3.30;3.30;;;;;;;;;;4940453;29;20508;-74
2023/05/09 11:14:40;;;;;;;4.20;4.00;;;;;;;;;;4939129;28;20462;-75
2023/05/09 11:17:11;;;;;;;3.70;3.47;;;;;;;;;;4939581;29;20477;-75
2023/05/09 11:19:37;;;;;;;3.67;3.67;;;;;;;;;;4940954;28;20874;-75
2023/05/09 11:22:31;;;;;;;4.20;4.00;;;;;;;;;;4939730;28;20442;-75
2023/05/09 11:25:06;;;;;;;3.80;3.43;;;;;;;;;;4940000;29;20485;-75
2023/05/09 11:27:52;;;;;;;3.60;3.50;;;;;;;;;;4943923;29;20904;-76
2023/05/09 11:30:20;;;;;;;3.40;3.30;;;;;;;;;;4941106;29;20525;-74
2023/05/09 11:32:57;;;;;;;3.27;3.17;;;;;;;;;;4943251;29;20462;-75
2023/05/09 11:35:25;;;;;;;3.70;3.70;;;;;;;;;;4942727;29;20441;-75
2023/05/09 11:37:53;;;;;;;4.90;4.60;;;;;;;;;;4924732;29;20448;-76
2023/05/09 11:40:21;;;;;;;3.73;3.47;;;;;;;;;;4944822;28;20505;-75
2023/05/09 11:42:48;;;;;;;3.23;3.13;;;;;;;;;;4945560;28;20444;-76
2023/05/09 11:45:15;;;;;;;4.20;3.90;;;;;;;;;;4947175;28;20598;-73
2023/05/09 11:47:41;;;;;;;3.67;3.57;;;;;;;;;;4941487;28;20454;-75
2023/05/09 11:50:08;;;;;;;3.47;3.40;;;;;;;;;;4939508;28;20953;-74
2023/05/09 11:52:35;;;;;;;3.60;3.40;;;;;;;;;;4922198;29;20491;-76
2023/05/09 11:55:08;;;;;;;3.27;3.17;;;;;;;;;;4945142;28;20538;-75
2023/05/09 11:57:35;;;;;;;4.83;4.63;;;;;;;;;;4944017;28;20501;-74
2023/05/09 12:00:03;;;;;;;2.97;2.90;;;;;;;;;;4938793;28;20536;-76
2023/05/09 12:02:29;;;;;;;5.57;3.50;;;;;;;;;;4945160;28;20445;-75
2023/05/09 12:04:56;;;;;;;3.17;3.07;;;;;;;;;;4932683;28;20444;-76
2023/05/09 12:07:22;;;;;;;2.93;2.93;;;;;;;;;;4935386;28;20450;-75
2023/05/09 12:09:49;;;;;;;3.27;3.27;;;;;;;;;;4945661;28;20533;-74
2023/05/09 12:12:19;;;;;;;3.30;3.20;;;;;;;;;;4937164;28;20593;-75
2023/05/09 12:14:45;;;;;;;3.53;3.53;;;;;;;;;;4945126;28;21028;-75
2023/05/09 12:17:11;;;;;;;3.00;3.00;;;;;;;;;;4925409;29;20497;-75
2023/05/09 12:19:37;;;;;;;3.00;2.80;;;;;;;;;;4941418;28;21038;-74
2023/05/09 12:22:13;;;;;;;3.03;2.93;;;;;;;;;;4933343;29;20442;-76
2023/05/09 12:24:39;;;;;;;3.50;3.20;;;;;;;;;;4943524;28;20445;-76
2023/05/09 12:27:06;;;;;;;2.83;2.73;;;;;;;;;;4945137;28;21008;-76
2023/05/09 12:29:32;;;;;;;2.77;2.77;;;;;;;;;;4945703;28;20464;-74
2023/05/09 12:31:59;;;;;;;2.80;2.70;;;;;;;;;;4940994;28;20450;-74
2023/05/09 12:34:25;;;;;;;2.73;2.73;;;;;;;;;;4937511;28;20838;-76
2023/05/09 12:36:52;;;;;;;2.60;2.60;;;;;;;;;;4942020;28;20453;-76
2023/05/09 12:39:20;;;;;;;3.30;3.17;;;;;;;;;;4929440;29;20565;-75
2023/05/09 12:41:47;;;;;;;3.03;2.93;;;;;;;;;;4939982;28;20886;-75
2023/05/09 12:44:27;;;;;;;4.67;4.27;;;;;;;;;;4957838;28;20450;-75
2023/05/09 12:47:00;;;;;;;3.73;3.63;;;;;;;;;;4958896;29;20452;-75
2023/05/09 12:49:26;;;;;;;3.57;3.47;;;;;;;;;;4947841;28;20886;-76
2023/05/09 12:51:52;;;;;;;3.20;3.10;;;;;;;;;;4937780;28;20899;-75
2023/05/09 12:54:22;;;;;;;2.90;2.80;;;;;;;;;;4936119;29;20477;-75
2023/05/09 12:56:51;;;;;;;3.10;3.00;;;;;;;;;;4944063;29;20448;-76
2023/05/09 12:59:21;;;;;;;3.27;3.27;;;;;;;;;;4940785;29;20481;-75
2023/05/09 13:01:54;;;;;;;3.20;3.10;;;;;;;;;;4929065;29;20465;-75
2023/05/09 13:04:21;;;;;;;3.70;3.60;;;;;;;;;;4933328;28;20464;-75
2023/05/09 13:06:52;;;;;;;2.93;2.83;;;;;;;;;;4941873;29;20882;-76
2023/05/09 13:09:18;;;;;;;3.67;3.57;;;;;;;;;;4939059;28;20626;-76
2023/05/09 13:11:46;;;;;;;3.57;3.50;;;;;;;;;;4940201;29;20448;-75
2023/05/09 13:14:12;;;;;;;3.37;3.17;;;;;;;;;;4941584;28;20978;-76
2023/05/09 13:16:39;;;;;;;3.47;3.27;;;;;;;;;;4944734;29;20481;-76
2023/05/09 13:19:05;;;;;;;3.07;3.00;;;;;;;;;;4953739;28;20446;-76
2023/05/09 13:21:34;;;;;;;3.10;3.00;;;;;;;;;;4943393;29;20557;-77
2023/05/09 13:24:00;;;;;;;4.10;3.90;;;;;;;;;;4924071;29;20490;-76
2023/05/09 13:26:26;;;;;;;3.27;2.90;;;;;;;;;;4946260;29;20434;-76
2023/05/09 13:28:52;;;;;;;3.10;3.00;;;;;;;;;;4937797;28;20561;-76
2023/05/09 13:31:18;;;;;;;3.13;2.80;;;;;;;;;;4945643;29;20444;-77
2023/05/09 13:33:44;;;;;;;3.97;3.77;;;;;;;;;;4937595;29;20866;-75
2023/05/09 13:36:10;;;;;;;3.57;3.30;;;;;;;;;;4944017;29;20430;-75
2023/05/09 13:38:39;;;;;;;2.37;2.37;;;;;;;;;;4938213;29;21167;-76
2023/05/09 13:41:06;;;;;;;3.30;3.20;;;;;;;;;;4938416;28;20474;-76
2023/05/09 13:43:32;;;;;;;3.13;3.03;;;;;;;;;;4941367;29;20449;-75
2023/05/09 13:45:58;;;;;;;4.50;4.40;;;;;;;;;;4938985;29;20458;-78
2023/05/09 13:48:24;;;;;;;7.23;6.67;;;;;;;;;;4943379;29;20827;-76
2023/05/09 13:50:50;;;;;;;6.40;6.07;;;;;;;;;;4942871;29;20446;-77
2023/05/09 13:53:16;;;;;;;6.50;6.23;;;;;;;;;;4935092;29;20497;-75
2023/05/09 13:55:42;;;;;;;7.57;6.80;;;;;;;;;;4940538;29;20450;-75
2023/05/09 13:58:08;;;;;;;7.77;7.07;;;;;;;;;;4942384;28;20479;-75
2023/05/09 14:00:34;;;;;;;8.37;7.87;;;;;;;;;;4944354;29;20470;-76
2023/05/09 14:03:03;;;;;;;8.20;7.80;;;;;;;;;;4943449;29;20434;-76
2023/05/09 14:05:33;;;;;;;7.20;6.70;;;;;;;;;;4921767;29;20557;-75
2023/05/09 14:08:00;;;;;;;7.73;7.23;;;;;;;;;;4941937;29;20431;-76
2023/05/09 14:10:26;;;;;;;7.40;7.00;;;;;;;;;;4940599;29;20599;-74
2023/05/09 14:12:52;;;;;;;8.03;7.43;;;;;;;;;;4934978;28;21101;-74
2023/05/09 14:15:19;;;;;;;7.30;6.80;;;;;;;;;;4941529;28;20458;-75
2023/05/09 14:17:45;;;;;;;8.30;7.70;;;;;;;;;;4944930;29;20437;-76
2023/05/09 14:20:11;;;;;;;9.53;8.73;;;;;;;;;;4943282;28;20789;-76
2023/05/09 14:22:41;;;;;;;9.00;8.40;;;;;;;;;;4940479;29;20430;-76
2023/05/09 14:25:07;;;;;;;10.20;9.40;;;;;;;;;;4918927;28;20455;-76
2023/05/09 14:27:36;;;;;;;11.13;10.23;;;;;;;;;;4927188;29;20443;-74
2023/05/09 14:30:03;;;;;;;13.03;12.13;;;;;;;;;;4938690;29;20481;-75